This is the latest recevied weather packets stored in our database for station/object HK4CL-10. If no packets are shown the sender has not sent any weather packets the latest 10 day(s).
| Time | Temp. | Humidity | Pressure | Rain* | Wind** | Luminosity | Snow |
|---|---|---|---|---|---|---|---|
| 1787380350 | 19.44° C | 78% | 819.7 hPa | - | - | - | - |
| 1787379450 | 20° C | 76% | 819.7 hPa | - | - | - | - |
| 1787378550 | 20° C | 75% | 819.7 hPa | - | - | - | - |
| 1787377650 | 20° C | 76% | 820.2 hPa | - | - | - | - |
| 1787376749 | 20.56° C | 74% | 820.5 hPa | - | - | - | - |
| 1787375849 | 20.56° C | 73% | 820.9 hPa | - | - | - | - |
| 1787374949 | 20.56° C | 72% | 820.9 hPa | - | - | - | - |
| 1787374048 | 20.56° C | 72% | 820.6 hPa | - | - | - | - |
| 1787373148 | 21.11° C | 70% | 820.3 hPa | - | - | - | - |
| 1787372248 | 21.11° C | 71% | 820.8 hPa | - | - | - | - |
| 1787371348 | 20.56° C | 72% | 821.1 hPa | - | - | - | - |
| 1787370447 | 21.11° C | 71% | 821.4 hPa | - | - | - | - |
| 1787369547 | 21.11° C | 71% | 821.4 hPa | - | - | - | - |
| 1787368647 | 21.11° C | 69% | 821.5 hPa | - | - | - | - |
| 1787367746 | 21.11° C | 69% | 821.5 hPa | - | - | - | - |
| 1787366846 | 21.11° C | 67% | 821.2 hPa | - | - | - | - |
| 1787365945 | 21.11° C | 66% | 821 hPa | - | - | - | - |
| 1787365045 | 21.11° C | 64% | 820.7 hPa | - | - | - | - |
| 1787364150 | 21.67° C | 60% | 820.6 hPa | - | - | - | - |
| 1787363249 | 21.67° C | 59% | 820.5 hPa | - | - | - | - |
| 1787362349 | 22.22° C | 56% | 820.3 hPa | - | - | - | - |
| 1787361449 | 22.78° C | 54% | 820.7 hPa | - | - | - | - |
| 1787360549 | 22.78° C | 53% | 820.6 hPa | - | - | - | - |
| 1787359648 | 22.78° C | 53% | 820.4 hPa | - | - | - | - |
| 1787358748 | 22.78° C | 50% | 820 hPa | - | - | - | - |
* Rain since midnight (hover to see other rain measurements)
** Current wind speed in m/s (hover to see current wind gust speed)